Time;durP1;ratioP1;P1;durP2;ratioP2;P2;SDS_P1;SDS_P2;PMS_P1;PMS_P2;Temp;Humidity;BMP_temperature;BMP_pressure;BME280_temperature;BME280_humidity;BME280_pressure;Samples;Min_cycle;Max_cycle;Signal;HPM_P1;HPM_P2
2022/05/29 00:00:51;;;;;;;3.95;1.52;;;13.60;63.30;;;;;;5017452;28;20446;-65
2022/05/29 00:03:17;;;;;;;7.45;1.95;;;13.60;63.40;;;;;;5033501;28;20025;-65
2022/05/29 00:05:44;;;;;;;6.00;1.50;;;13.60;63.40;;;;;;5034590;28;20406;-65
2022/05/29 00:08:13;;;;;;;4.25;1.58;;;13.60;63.40;;;;;;5025187;28;20065;-65
2022/05/29 00:10:41;;;;;;;7.22;1.65;;;13.60;63.50;;;;;;5034361;28;20038;-65
2022/05/29 00:13:07;;;;;;;5.30;1.85;;;13.50;64.20;;;;;;5034167;28;20381;-65
2022/05/29 00:15:33;;;;;;;5.00;1.60;;;13.50;63.50;;;;;;5033549;28;20053;-65
2022/05/29 00:17:59;;;;;;;5.88;1.85;;;13.50;63.60;;;;;;5021440;28;20033;-65
2022/05/29 00:20:25;;;;;;;9.18;1.92;;;13.50;63.80;;;;;;5033171;28;20346;-65
2022/05/29 00:22:50;;;;;;;4.40;1.60;;;13.40;63.90;;;;;;5033254;28;20030;-65
2022/05/29 00:25:16;;;;;;;5.00;1.50;;;13.40;64.10;;;;;;5032425;28;20057;-65
2022/05/29 00:27:41;;;;;;;4.78;1.52;;;13.40;64.20;;;;;;5026558;28;20507;-65
2022/05/29 00:30:10;;;;;;;5.70;1.67;;;13.40;64.30;;;;;;5041670;28;20033;-65
2022/05/29 00:32:36;;;;;;;6.07;1.50;;;13.40;64.50;;;;;;5033838;28;20045;-65
2022/05/29 00:35:02;;;;;;;5.15;1.50;;;13.30;64.50;;;;;;5022238;28;20363;-65
2022/05/29 00:37:34;;;;;;;3.80;1.40;;;13.30;64.60;;;;;;5020490;28;20038;-65
2022/05/29 00:40:00;;;;;;;5.28;1.50;;;13.40;64.70;;;;;;5022392;28;20032;-65
2022/05/29 00:42:25;;;;;;;7.25;2.13;;;13.40;64.80;;;;;;5033895;28;20367;-65
2022/05/29 00:44:52;;;;;;;5.45;1.40;;;13.40;65.00;;;;;;5031797;28;20128;-65
2022/05/29 00:47:23;;;;;;;4.60;1.60;;;13.40;65.20;;;;;;5028587;28;20104;-65
2022/05/29 00:49:50;;;;;;;4.93;1.55;;;13.40;65.40;;;;;;5029429;28;20061;-65
2022/05/29 00:52:28;;;;;;;6.15;1.70;;;13.40;65.40;;;;;;5033646;28;20040;-65
2022/05/29 00:54:56;;;;;;;5.53;1.90;;;13.40;65.60;;;;;;5033806;28;20036;-65
2022/05/29 00:57:34;;;;;;;8.18;1.70;;;13.40;65.80;;;;;;5029633;28;20025;-66
2022/05/29 01:00:04;;;;;;;6.15;2.10;;;13.40;66.00;;;;;;5033913;28;20361;-65
2022/05/29 01:02:29;;;;;;;8.90;1.73;;;13.40;66.20;;;;;;5024483;28;20465;-65
2022/05/29 01:04:56;;;;;;;7.47;1.88;;;13.40;66.50;;;;;;5033692;28;20053;-65
2022/05/29 01:07:24;;;;;;;7.55;2.00;;;13.50;66.70;;;;;;5025775;28;20448;-65
2022/05/29 01:09:50;;;;;;;7.38;1.92;;;13.50;66.90;;;;;;5033908;28;20026;-65
2022/05/29 01:12:37;;;;;;;5.05;1.65;;;13.50;67.00;;;;;;5032506;28;20366;-66
2022/05/29 01:15:08;;;;;;;5.53;1.65;;;13.50;67.30;;;;;;5033580;28;20060;-65
2022/05/29 01:17:34;;;;;;;;;;;13.50;67.40;;;;;;5019949;28;20037;-65
2022/05/29 01:20:29;;;;;;;10.10;2.03;;;13.40;67.20;;;;;;5029010;28;20265;-65
2022/05/29 01:23:04;;;;;;;6.00;1.60;;;13.40;67.50;;;;;;5031481;28;20183;-65
2022/05/29 01:26:07;;;;;;;7.07;1.67;;;13.40;67.70;;;;;;5035329;28;20095;-65
2022/05/29 01:28:44;;;;;;;4.75;1.65;;;13.40;67.90;;;;;;5029918;28;20029;-65
2022/05/29 01:31:39;;;;;;;5.78;1.52;;;13.30;68.10;;;;;;5037412;28;20171;-64
2022/05/29 01:34:25;;;;;;;5.78;1.52;;;13.30;68.30;;;;;;5035307;28;20029;-65
2022/05/29 01:37:03;;;;;;;6.95;2.00;;;13.30;68.40;;;;;;5020188;28;20022;-65
2022/05/29 01:39:38;;;;;;;7.72;2.22;;;13.30;68.40;;;;;;5032516;28;20032;-65
2022/05/29 01:42:22;;;;;;;7.35;2.28;;;13.30;68.40;;;;;;5030350;28;20033;-64
2022/05/29 01:45:01;;;;;;;6.65;2.28;;;13.30;68.50;;;;;;5030425;28;20087;-65
2022/05/29 01:47:39;;;;;;;6.22;2.05;;;13.30;68.70;;;;;;5034171;28;20025;-65
2022/05/29 01:50:48;;;;;;;6.43;2.25;;;13.30;68.70;;;;;;5028310;28;20037;-65
2022/05/29 01:53:21;;;;;;;7.75;2.28;;;13.30;68.70;;;;;;5024525;28;20048;-65
2022/05/29 01:55:51;;;;;;;9.68;2.25;;;13.30;68.60;;;;;;5033019;28;20409;-64
2022/05/29 01:58:23;;;;;;;7.38;2.40;;;13.30;68.70;;;;;;5033995;28;20026;-65
2022/05/29 02:00:51;;;;;;;9.13;2.70;;;13.30;68.70;;;;;;5026757;28;20402;-65
2022/05/29 02:03:24;;;;;;;6.30;2.20;;;13.30;68.80;;;;;;5027829;28;20083;-65
2022/05/29 02:05:57;;;;;;;5.72;2.05;;;13.30;68.80;;;;;;5032467;28;20362;-65
2022/05/29 02:08:32;;;;;;;6.93;2.38;;;13.20;68.80;;;;;;5036556;28;20029;-65
2022/05/29 02:11:30;;;;;;;6.93;2.53;;;13.20;68.90;;;;;;5019243;28;20130;-65
2022/05/29 02:14:11;;;;;;;7.47;2.80;;;13.20;68.90;;;;;;5026748;28;20106;-64
2022/05/29 02:16:42;;;;;;;6.78;2.00;;;13.20;69.00;;;;;;5034407;28;20117;-65
2022/05/29 02:19:28;;;;;;;6.72;2.42;;;13.20;69.00;;;;;;5036803;28;20029;-64
2022/05/29 02:21:59;;;;;;;9.35;2.42;;;13.20;69.00;;;;;;5023877;28;20057;-65
2022/05/29 02:24:38;;;;;;;6.93;2.60;;;13.20;69.10;;;;;;5035474;28;20033;-65
2022/05/29 02:27:17;;;;;;;5.28;2.40;;;13.20;69.10;;;;;;5033202;28;20025;-65
2022/05/29 02:29:42;;;;;;;7.60;2.30;;;13.20;69.20;;;;;;5042819;28;20025;-65
2022/05/29 02:32:16;;;;;;;11.90;2.83;;;13.20;69.20;;;;;;5030541;28;20132;-65
2022/05/29 02:34:41;;;;;;;8.20;2.75;;;13.20;69.30;;;;;;5027834;28;20106;-65
2022/05/29 02:37:37;;;;;;;10.38;2.88;;;13.10;69.20;;;;;;5034656;28;20017;-65
2022/05/29 02:40:21;;;;;;;9.15;2.75;;;13.10;69.30;;;;;;5036188;28;20431;-65
2022/05/29 02:42:57;;;;;;;9.05;2.63;;;13.10;69.30;;;;;;5024841;28;20117;-65
2022/05/29 02:45:43;;;;;;;11.05;2.67;;;13.10;69.50;;;;;;5033189;28;20064;-65
2022/05/29 02:48:30;;;;;;;8.35;2.22;;;13.10;69.70;;;;;;5028726;28;20034;-65
2022/05/29 02:51:14;;;;;;;7.10;2.08;;;13.00;69.70;;;;;;5024015;28;20447;-65
2022/05/29 02:53:45;;;;;;;4.47;1.92;;;13.00;69.80;;;;;;5021115;28;20458;-65
2022/05/29 02:56:12;;;;;;;6.70;1.92;;;13.00;69.90;;;;;;5029386;28;20030;-65
2022/05/29 02:58:40;;;;;;;5.60;2.10;;;12.90;69.80;;;;;;5035502;28;20381;-65
2022/05/29 03:01:35;;;;;;;6.45;2.17;;;13.00;69.90;;;;;;5024968;28;20022;-65
2022/05/29 03:04:28;;;;;;;4.85;1.95;;;13.00;70.00;;;;;;5029274;28;20037;-65
2022/05/29 03:07:22;;;;;;;6.82;2.00;;;13.00;69.90;;;;;;5031150;28;20041;-65
2022/05/29 03:10:20;;;;;;;4.43;1.77;;;13.00;70.00;;;;;;5033857;28;20492;-65
2022/05/29 03:13:21;;;;;;;3.83;1.60;;;12.90;70.10;;;;;;5034893;28;20087;-65
2022/05/29 03:16:07;;;;;;;5.65;1.80;;;12.90;70.00;;;;;;5016878;28;20056;-65
2022/05/29 03:18:55;;;;;;;5.65;1.60;;;12.90;70.10;;;;;;5010191;28;20045;-65
2022/05/29 03:21:24;;;;;;;3.50;1.40;;;12.90;70.10;;;;;;5017214;28;20057;-65
2022/05/29 03:24:14;;;;;;;4.25;1.92;;;12.90;70.10;;;;;;5014154;28;20048;-65
2022/05/29 03:26:48;;;;;;;3.65;1.63;;;12.90;70.30;;;;;;5009213;28;20043;-65
2022/05/29 03:29:35;;;;;;;5.03;1.70;;;12.90;70.30;;;;;;5014130;28;20386;-65
2022/05/29 03:32:02;;;;;;;7.63;1.75;;;12.90;70.40;;;;;;4987516;28;20061;-65
2022/05/29 03:34:28;;;;;;;3.80;1.35;;;12.90;70.40;;;;;;5012420;28;20439;-65
2022/05/29 03:36:54;;;;;;;5.57;1.77;;;12.90;70.50;;;;;;5015090;28;20057;-65
2022/05/29 03:39:20;;;;;;;4.88;1.83;;;12.90;70.50;;;;;;4993222;28;20021;-65
2022/05/29 03:41:52;;;;;;;6.55;1.95;;;13.00;70.60;;;;;;5013109;28;20030;-64
2022/05/29 03:44:20;;;;;;;6.85;2.00;;;12.90;70.70;;;;;;5012817;28;20463;-64
2022/05/29 03:46:46;;;;;;;6.38;2.10;;;12.90;70.70;;;;;;5013267;28;20443;-65
2022/05/29 03:49:14;;;;;;;5.93;2.03;;;13.00;71.40;;;;;;5018292;28;20106;-65
2022/05/29 03:51:40;;;;;;;4.05;1.60;;;13.00;70.70;;;;;;5028873;28;20105;-64
2022/05/29 03:54:06;;;;;;;4.50;1.63;;;13.00;70.60;;;;;;5033920;28;20128;-65
2022/05/29 03:56:32;;;;;;;4.68;1.90;;;13.00;70.70;;;;;;5033801;28;20030;-65
2022/05/29 03:58:57;;;;;;;6.78;1.92;;;13.00;71.40;;;;;;5029168;28;20075;-65
2022/05/29 04:01:24;;;;;;;6.68;2.28;;;13.10;70.80;;;;;;5032665;28;20029;-65
2022/05/29 04:03:53;;;;;;;7.35;1.95;;;13.10;70.80;;;;;;5027199;28;20052;-65
2022/05/29 04:06:19;;;;;;;4.57;1.75;;;13.10;70.90;;;;;;5033325;28;20033;-65
2022/05/29 04:14:13;;;;;;;5.65;1.98;;;13.10;70.80;;;;;;5029313;28;20067;-65
2022/05/29 04:16:38;;;;;;;4.43;1.73;;;13.10;70.80;;;;;;5034372;28;20021;-65
2022/05/29 04:19:04;;;;;;;5.78;1.83;;;13.10;70.70;;;;;;5029489;28;20108;-65
2022/05/29 04:21:30;;;;;;;7.65;2.00;;;13.10;70.60;;;;;;5031827;28;20029;-65
2022/05/29 04:23:55;;;;;;;6.15;2.08;;;13.20;71.20;;;;;;5029192;28;20489;-65
2022/05/29 04:26:21;;;;;;;3.90;1.58;;;13.20;71.10;;;;;;5033638;28;20048;-64
2022/05/29 04:28:46;;;;;;;5.18;2.20;;;13.30;70.40;;;;;;5036736;28;20037;-65
2022/05/29 04:31:12;;;;;;;7.07;2.00;;;13.30;70.20;;;;;;5026812;28;20053;-65
2022/05/29 04:33:37;;;;;;;5.75;1.85;;;13.40;70.10;;;;;;5034216;28;20029;-65
2022/05/29 04:36:04;;;;;;;7.70;2.08;;;13.40;70.00;;;;;;5032754;28;20068;-64
2022/05/29 04:38:30;;;;;;;5.85;1.80;;;13.40;70.00;;;;;;5029240;28;20021;-64
2022/05/29 04:40:57;;;;;;;8.27;1.73;;;13.40;70.00;;;;;;5028896;28;20095;-65
2022/05/29 04:43:24;;;;;;;6.50;1.95;;;13.40;70.00;;;;;;5028621;28;20033;-65
2022/05/29 04:45:55;;;;;;;6.05;1.90;;;13.30;70.00;;;;;;5029334;28;20116;-65
2022/05/29 04:48:21;;;;;;;5.95;1.67;;;13.30;70.10;;;;;;5032423;28;20442;-65
2022/05/29 04:50:47;;;;;;;7.90;1.95;;;13.30;70.10;;;;;;5031881;28;20073;-65
2022/05/29 04:53:12;;;;;;;5.40;1.65;;;13.20;70.10;;;;;;5030983;28;20065;-65
2022/05/29 04:55:40;;;;;;;6.28;2.08;;;13.20;70.20;;;;;;5032927;28;20030;-65
2022/05/29 04:58:06;;;;;;;5.50;1.65;;;13.30;70.20;;;;;;5019579;28;20040;-64
2022/05/29 05:00:32;;;;;;;7.25;1.90;;;13.30;70.10;;;;;;5022880;28;20029;-65
2022/05/29 05:02:58;;;;;;;7.18;2.08;;;13.30;70.10;;;;;;5031647;28;20415;-65
2022/05/29 05:05:25;;;;;;;4.70;1.80;;;13.30;70.10;;;;;;5016421;28;20034;-65
2022/05/29 05:07:50;;;;;;;4.85;1.73;;;13.20;70.10;;;;;;5031550;28;20032;-65
2022/05/29 05:10:17;;;;;;;5.22;1.83;;;13.20;70.30;;;;;;5032873;28;20030;-65
2022/05/29 05:12:44;;;;;;;8.30;2.25;;;13.20;70.40;;;;;;5031491;28;20049;-64
2022/05/29 05:15:12;;;;;;;6.60;2.30;;;13.20;70.40;;;;;;5032849;28;20453;-65
2022/05/29 05:17:38;;;;;;;4.75;1.88;;;13.20;70.50;;;;;;5040895;28;20365;-65
2022/05/29 05:20:05;;;;;;;8.52;2.45;;;13.20;70.40;;;;;;5028443;28;20021;-64
2022/05/29 05:22:30;;;;;;;6.63;1.65;;;13.20;70.50;;;;;;5032256;28;20080;-65
2022/05/29 05:24:56;;;;;;;6.30;1.88;;;13.20;70.60;;;;;;5033941;28;20026;-64
2022/05/29 05:27:21;;;;;;;4.32;1.50;;;13.30;70.70;;;;;;5029606;28;20114;-64
2022/05/29 05:29:48;;;;;;;6.43;2.03;;;13.30;70.70;;;;;;5034331;28;20030;-64
2022/05/29 05:32:14;;;;;;;4.57;1.63;;;13.30;70.70;;;;;;5015885;28;20147;-64
2022/05/29 05:34:41;;;;;;;7.88;2.08;;;13.30;70.70;;;;;;5033667;28;20029;-64
2022/05/29 05:37:08;;;;;;;8.00;1.98;;;13.30;70.80;;;;;;5029157;28;20354;-64
2022/05/29 05:39:33;;;;;;;3.72;1.58;;;13.30;70.90;;;;;;5032694;28;20442;-64
2022/05/29 05:41:59;;;;;;;5.30;2.05;;;13.30;71.00;;;;;;5034315;28;20116;-64
2022/05/29 05:44:24;;;;;;;5.47;1.70;;;13.30;71.20;;;;;;5018885;28;20096;-64
2022/05/29 05:46:56;;;;;;;6.70;1.80;;;13.30;71.20;;;;;;5025607;28;20030;-65
2022/05/29 05:49:23;;;;;;;6.68;1.95;;;13.30;71.30;;;;;;5037439;28;20068;-65
2022/05/29 05:51:50;;;;;;;5.85;1.70;;;13.40;71.30;;;;;;5015565;28;20447;-65
2022/05/29 05:54:17;;;;;;;5.15;1.63;;;13.40;71.40;;;;;;5027018;28;20030;-65
2022/05/29 05:56:45;;;;;;;5.32;1.55;;;13.40;71.70;;;;;;5026868;28;20033;-65
2022/05/29 05:59:11;;;;;;;4.45;1.67;;;13.40;71.90;;;;;;5025424;28;20363;-65
2022/05/29 06:01:37;;;;;;;4.80;1.50;;;13.40;72.10;;;;;;5031934;28;20066;-65
2022/05/29 06:04:03;;;;;;;6.25;1.80;;;13.40;72.20;;;;;;5030552;28;20029;-65
2022/05/29 06:06:29;;;;;;;4.93;1.65;;;13.50;72.20;;;;;;5028023;28;20465;-65
2022/05/29 06:08:56;;;;;;;3.45;1.50;;;13.50;72.00;;;;;;5030881;28;20033;-65
2022/05/29 06:11:23;;;;;;;5.05;1.52;;;13.60;72.10;;;;;;5033363;28;20064;-65
2022/05/29 06:13:49;;;;;;;6.28;1.75;;;13.60;72.10;;;;;;5038039;28;20029;-65
2022/05/29 06:16:14;;;;;;;4.47;1.55;;;13.60;72.10;;;;;;5034070;28;20029;-65
2022/05/29 06:18:40;;;;;;;5.15;1.70;;;13.60;72.00;;;;;;5032814;28;20044;-64
2022/05/29 06:21:06;;;;;;;5.20;1.40;;;13.70;72.70;;;;;;5025359;28;20340;-65
2022/05/29 06:23:36;;;;;;;4.43;1.40;;;13.70;72.00;;;;;;5034359;28;20433;-65
2022/05/29 06:26:03;;;;;;;5.53;1.58;;;13.80;72.00;;;;;;5043062;28;20029;-65
2022/05/29 06:28:30;;;;;;;5.90;1.75;;;13.80;71.80;;;;;;5030788;28;20061;-65
2022/05/29 06:30:56;;;;;;;4.22;1.40;;;13.80;71.60;;;;;;5033608;28;20029;-64
2022/05/29 06:33:22;;;;;;;4.07;1.33;;;13.90;71.50;;;;;;5045028;28;20447;-64
2022/05/29 06:35:47;;;;;;;5.22;1.63;;;13.90;71.40;;;;;;5027723;28;20148;-65
2022/05/29 06:38:13;;;;;;;4.57;1.42;;;13.90;71.40;;;;;;5032234;28;20040;-65
2022/05/29 06:40:45;;;;;;;6.03;1.75;;;13.90;71.30;;;;;;5032272;28;20030;-65
2022/05/29 06:43:11;;;;;;;6.07;1.40;;;14.00;71.30;;;;;;5034541;28;20037;-65
2022/05/29 06:45:37;;;;;;;5.97;1.58;;;14.00;71.20;;;;;;5044753;28;20091;-65
2022/05/29 06:48:03;;;;;;;4.38;1.33;;;14.00;71.10;;;;;;5023955;28;20045;-65
2022/05/29 06:50:29;;;;;;;4.20;1.45;;;14.00;71.10;;;;;;5013096;28;20049;-65
2022/05/29 06:52:55;;;;;;;4.57;1.55;;;13.90;71.10;;;;;;5035162;28;20037;-65
2022/05/29 06:55:21;;;;;;;5.95;1.45;;;13.80;71.30;;;;;;5034484;28;20029;-65
2022/05/29 06:57:48;;;;;;;4.97;1.50;;;13.80;71.50;;;;;;5034404;28;20030;-65
2022/05/29 07:08:43;;;;;;;5.93;1.75;;;13.70;72.10;;;;;;5033220;28;20466;-64
2022/05/29 07:11:15;;;;;;;6.07;1.25;;;13.70;72.10;;;;;;5029750;28;20029;-64
2022/05/29 07:13:41;;;;;;;4.63;1.52;;;13.70;72.20;;;;;;5035731;28;20045;-64
2022/05/29 07:16:06;;;;;;;4.32;1.98;;;13.80;72.30;;;;;;5023070;28;20017;-64
2022/05/29 07:18:32;;;;;;;5.47;1.70;;;13.80;72.30;;;;;;5030651;28;20033;-64
2022/05/29 07:21:00;;;;;;;3.15;1.33;;;13.90;72.30;;;;;;5022206;28;20022;-64
2022/05/29 07:23:26;;;;;;;5.75;1.70;;;13.90;72.30;;;;;;5017215;28;20042;-64
2022/05/29 07:25:51;;;;;;;4.20;1.63;;;14.00;72.30;;;;;;5024255;28;20029;-65
2022/05/29 07:28:17;;;;;;;4.20;1.58;;;14.00;72.40;;;;;;5013540;28;20409;-64
2022/05/29 07:30:43;;;;;;;5.72;1.50;;;14.00;72.50;;;;;;5023101;28;20042;-65
2022/05/29 07:33:09;;;;;;;4.60;1.63;;;14.10;72.30;;;;;;5015654;28;20547;-64
2022/05/29 07:35:35;;;;;;;4.80;1.40;;;14.20;72.10;;;;;;5016036;28;20124;-64
2022/05/29 07:38:01;;;;;;;5.15;1.48;;;14.30;71.70;;;;;;5027617;28;20108;-65
2022/05/29 07:40:27;;;;;;;3.75;1.40;;;14.30;71.40;;;;;;5029706;28;20109;-65
2022/05/29 07:45:37;;;;;;;4.03;1.63;;;14.40;71.10;;;;;;5025006;28;20112;-65
2022/05/29 07:48:03;;;;;;;6.35;1.60;;;14.50;71.60;;;;;;5019269;28;20042;-65
2022/05/29 07:50:29;;;;;;;3.90;1.38;;;14.50;70.80;;;;;;5014828;28;20401;-66
2022/05/29 07:52:55;;;;;;;6.40;1.58;;;14.50;70.90;;;;;;5018625;28;20125;-65
2022/05/29 07:55:21;;;;;;;5.97;1.48;;;14.40;71.10;;;;;;5024282;28;20057;-65
2022/05/29 07:57:47;;;;;;;5.32;1.50;;;14.30;71.20;;;;;;5033070;28;20022;-65
2022/05/29 08:00:16;;;;;;;8.20;1.52;;;14.20;71.50;;;;;;5015725;28;20037;-65
2022/05/29 08:02:43;;;;;;;5.72;1.50;;;14.20;71.60;;;;;;5030316;28;20029;-65
2022/05/29 08:05:11;;;;;;;6.97;1.90;;;14.20;71.80;;;;;;5032621;28;20116;-65
2022/05/29 08:07:37;;;;;;;4.78;1.40;;;14.20;72.00;;;;;;5024931;28;20026;-65
2022/05/29 08:10:04;;;;;;;5.47;1.70;;;14.20;72.00;;;;;;5026527;28;20037;-65
2022/05/29 08:12:30;;;;;;;4.93;1.48;;;14.30;72.00;;;;;;5033006;28;20094;-65
2022/05/29 08:14:55;;;;;;;6.85;2.03;;;14.30;71.90;;;;;;5028784;28;20033;-65
2022/05/29 08:17:21;;;;;;;4.07;1.40;;;14.50;71.80;;;;;;5034556;28;20044;-65
2022/05/29 08:19:46;;;;;;;7.05;1.75;;;14.50;71.60;;;;;;5034654;28;20033;-65
2022/05/29 08:22:12;;;;;;;7.00;1.70;;;14.60;71.50;;;;;;5029719;28;20395;-65
2022/05/29 08:30:37;;;;;;;4.00;1.60;;;14.70;71.30;;;;;;5032687;28;20425;-65
2022/05/29 08:33:05;;;;;;;3.38;1.40;;;14.80;71.10;;;;;;5033465;28;20505;-65
2022/05/29 08:35:32;;;;;;;5.80;1.60;;;14.90;70.90;;;;;;5031036;28;20037;-65
2022/05/29 08:37:59;;;;;;;2.72;1.42;;;15.00;70.90;;;;;;5016047;28;20117;-65
2022/05/29 08:40:30;;;;;;;3.58;1.20;;;15.10;70.90;;;;;;5028290;28;20417;-65
2022/05/29 08:42:56;;;;;;;2.97;1.20;;;15.20;70.50;;;;;;5003447;28;20092;-65
2022/05/29 08:45:22;;;;;;;5.50;1.50;;;15.20;70.30;;;;;;5028575;28;20034;-65
2022/05/29 08:47:49;;;;;;;4.47;1.50;;;15.20;70.40;;;;;;5033244;28;20102;-66
2022/05/29 08:50:23;;;;;;;7.20;1.95;;;15.20;70.60;;;;;;5031724;28;20098;-65
2022/05/29 08:53:05;;;;;;;5.22;1.58;;;15.10;70.60;;;;;;5015659;28;20030;-65
2022/05/29 08:55:55;;;;;;;4.85;1.80;;;15.10;70.70;;;;;;5021304;28;20121;-64
2022/05/29 08:58:29;;;;;;;4.60;1.52;;;15.10;70.90;;;;;;5032484;28;20026;-65
2022/05/29 09:01:28;;;;;;;5.25;1.55;;;15.20;70.80;;;;;;5034230;28;20025;-65
2022/05/29 09:04:00;;;;;;;3.85;1.30;;;15.20;70.60;;;;;;5038734;28;20402;-65
2022/05/29 09:06:51;;;;;;;6.72;1.85;;;15.30;70.40;;;;;;5032090;28;20030;-65
2022/05/29 09:09:28;;;;;;;4.80;1.67;;;15.40;69.80;;;;;;5026470;28;20653;-66
2022/05/29 09:11:58;;;;;;;4.55;1.38;;;15.40;69.70;;;;;;5031786;28;20109;-67
2022/05/29 09:14:55;;;;;;;4.57;1.30;;;15.50;69.60;;;;;;5007031;28;20108;-65
2022/05/29 09:17:35;;;;;;;5.50;1.33;;;15.40;69.50;;;;;;5018486;28;20030;-64
2022/05/29 09:20:09;;;;;;;5.28;1.52;;;15.30;69.40;;;;;;5020993;28;20041;-66
2022/05/29 09:22:41;;;;;;;4.30;1.65;;;15.20;69.50;;;;;;5024205;28;20040;-65
2022/05/29 09:25:07;;;;;;;;;;;15.10;69.70;;;;;;5028580;28;20120;-67
2022/05/29 09:27:42;;;;;;;5.38;1.73;;;15.00;69.70;;;;;;5028497;28;20055;-66
2022/05/29 09:30:08;;;;;;;7.75;1.52;;;15.00;70.50;;;;;;5031823;28;20530;-67
2022/05/29 09:32:40;;;;;;;3.17;1.35;;;15.00;69.80;;;;;;5009919;28;20053;-66
2022/05/29 09:35:45;;;;;;;5.53;1.50;;;15.00;69.90;;;;;;5027535;28;20083;-65
2022/05/29 09:38:23;;;;;;;7.03;1.55;;;15.00;70.00;;;;;;5027113;28;20038;-65
2022/05/29 09:40:57;;;;;;;6.85;1.70;;;15.00;69.90;;;;;;5016448;28;21957;-65
2022/05/29 09:43:27;;;;;;;5.45;1.42;;;15.00;69.90;;;;;;5035431;28;20076;-64
2022/05/29 09:45:53;;;;;;;4.15;1.25;;;15.00;69.80;;;;;;5033905;28;20039;-64
2022/05/29 09:51:24;;;;;;;5.85;1.75;;;15.10;69.50;;;;;;5029907;28;20034;-64
2022/05/29 09:53:56;;;;;;;6.63;1.52;;;15.20;69.20;;;;;;5029796;28;20045;-64
2022/05/29 09:56:30;;;;;;;6.22;1.85;;;15.40;68.90;;;;;;5035137;28;20033;-65
2022/05/29 09:59:01;;;;;;;4.68;1.50;;;15.70;68.60;;;;;;5021984;28;20034;-65
2022/05/29 10:01:40;;;;;;;;;;;15.90;67.60;;;;;;5008644;28;20105;-65
2022/05/29 10:04:12;;;;;;;4.88;1.23;;;16.00;67.20;;;;;;5028369;28;20365;-65
2022/05/29 10:06:44;;;;;;;5.60;1.40;;;15.90;67.00;;;;;;5027968;28;20403;-65
2022/05/29 10:09:09;;;;;;;;;;;15.80;66.90;;;;;;5022168;28;20038;-65
2022/05/29 10:11:35;;;;;;;5.65;1.40;;;15.70;66.90;;;;;;5019879;28;20294;-65
2022/05/29 10:14:36;;;;;;;9.10;2.30;;;15.60;66.90;;;;;;5021374;28;20514;-65
2022/05/29 10:17:15;;;;;;;3.85;1.10;;;15.70;66.80;;;;;;5019819;28;20026;-66
2022/05/29 10:19:44;;;;;;;6.43;1.70;;;15.70;66.70;;;;;;5033137;28;20030;-66
2022/05/29 10:22:37;;;;;;;4.60;1.25;;;15.70;66.70;;;;;;5002098;28;20416;-66
2022/05/29 10:25:20;;;;;;;6.00;1.20;;;15.80;66.70;;;;;;5019651;28;20076;-67
2022/05/29 10:27:48;;;;;;;6.05;1.25;;;15.80;66.30;;;;;;5031351;28;20047;-67
2022/05/29 10:30:28;;;;;;;4.22;1.30;;;15.70;66.20;;;;;;5019623;28;20061;-66
2022/05/29 10:33:07;;;;;;;8.60;1.75;;;15.70;65.90;;;;;;5028303;28;20037;-67
2022/05/29 10:35:39;;;;;;;5.75;1.23;;;15.60;66.00;;;;;;5018992;28;20112;-68
2022/05/29 10:38:22;;;;;;;6.63;1.70;;;15.60;66.20;;;;;;5029156;28;20030;-67
2022/05/29 10:40:50;;;;;;;5.53;1.48;;;15.40;66.10;;;;;;5015626;28;20466;-67
2022/05/29 10:43:36;;;;;;;6.97;1.60;;;15.20;66.50;;;;;;5022671;28;20083;-67
2022/05/29 10:46:12;;;;;;;5.63;1.52;;;15.20;67.00;;;;;;5019236;28;20025;-66
2022/05/29 10:49:17;;;;;;;4.38;1.25;;;15.10;67.40;;;;;;5016623;28;20476;-67
2022/05/29 10:51:59;;;;;;;5.43;1.35;;;15.10;67.30;;;;;;5017151;28;20493;-66
2022/05/29 10:54:55;;;;;;;3.97;1.00;;;15.10;67.40;;;;;;5020154;28;20120;-67
2022/05/29 10:57:29;;;;;;;6.10;1.33;;;15.20;67.30;;;;;;5022552;28;20034;-67
2022/05/29 11:00:03;;;;;;;4.68;1.30;;;15.20;67.20;;;;;;5017520;28;20109;-67
2022/05/29 11:06:09;;;;;;;6.25;1.60;;;15.40;66.40;;;;;;5018971;28;20380;-67
2022/05/29 11:08:52;;;;;;;6.78;1.50;;;15.60;66.10;;;;;;5016552;28;20037;-67
2022/05/29 11:11:34;;;;;;;4.40;1.10;;;15.80;65.50;;;;;;5016771;28;20034;-66
2022/05/29 11:13:59;;;;;;;;;;;16.00;64.80;;;;;;5024722;28;20447;-67
2022/05/29 11:16:31;;;;;;;;;;;16.20;64.40;;;;;;5027731;28;19934;-66
2022/05/29 11:19:06;;;;;;;;;;;16.50;64.20;;;;;;5018157;28;19941;-66
2022/05/29 11:21:43;;;;;;;;;;;16.60;64.10;;;;;;5031247;28;19916;-66
2022/05/29 11:24:12;;;;;;;;;;;16.60;63.80;;;;;;5019011;28;19909;-66
2022/05/29 11:26:53;;;;;;;;;;;16.60;63.80;;;;;;5030044;28;19920;-65
2022/05/29 11:29:43;;;;;;;;;;;16.50;63.30;;;;;;5034071;28;20002;-66
2022/05/29 11:32:28;;;;;;;;;;;16.60;63.70;;;;;;5027674;28;19917;-66
2022/05/29 11:35:06;;;;;;;;;;;16.60;63.10;;;;;;5031782;28;20015;-66
2022/05/29 11:37:47;;;;;;;;;;;16.70;63.40;;;;;;5035868;28;19924;-67
2022/05/29 11:40:20;;;;;;;;;;;16.80;63.30;;;;;;5029109;28;19909;-67
2022/05/29 11:42:56;;;;;;;;;;;16.90;63.20;;;;;;5016846;28;20012;-66
2022/05/29 11:51:07;;;;;;;;;;;16.90;63.10;;;;;;5012043;28;20369;-67
2022/05/29 11:51:07;;;;;;;;;;;17.00;62.50;;;;;;5027223;28;19909;-67
2022/05/29 11:53:37;;;;;;;;;;;16.90;62.60;;;;;;5019479;28;19976;-67
2022/05/29 11:56:06;;;;;;;;;;;16.90;62.30;;;;;;5033602;28;19913;-68
2022/05/29 11:58:40;;;;;;;;;;;17.00;62.40;;;;;;5031551;28;19910;-67
2022/05/29 12:01:08;;;;;;;;;;;17.00;62.10;;;;;;5031215;28;20031;-68
2022/05/29 12:03:33;;;;;;;;;;;17.10;61.80;;;;;;5027339;28;19979;-67
2022/05/29 12:06:13;;;;;;;;;;;17.10;61.70;;;;;;5029659;28;20007;-66
2022/05/29 12:08:59;;;;;;;;;;;17.20;61.30;;;;;;5029768;28;19909;-66
2022/05/29 12:11:38;;;;;;;;;;;17.30;61.30;;;;;;5049863;28;19913;-67
2022/05/29 12:14:12;;;;;;;;;;;17.40;61.20;;;;;;5023791;28;19965;-66
2022/05/29 12:16:40;;;;;;;;;;;17.60;60.80;;;;;;5034828;28;19909;-66
2022/05/29 12:19:08;;;;;;;;;;;17.60;60.10;;;;;;5035733;28;19924;-66
2022/05/29 12:21:36;;;;;;;;;;;17.70;60.40;;;;;;5035267;28;20318;-66
2022/05/29 12:24:02;;;;;;;;;;;17.80;60.20;;;;;;5028706;28;19974;-66
2022/05/29 12:26:47;;;;;;;;;;;17.80;60.60;;;;;;5033598;28;19988;-66
2022/05/29 12:29:16;;;;;;;;;;;17.80;59.70;;;;;;5035483;28;19913;-66
2022/05/29 12:31:44;;;;;;;;;;;17.70;59.40;;;;;;5032299;28;20342;-66
2022/05/29 12:34:22;;;;;;;;;;;17.80;59.80;;;;;;5017995;28;20289;-67
2022/05/29 12:37:14;;;;;;;;;;;18.00;59.70;;;;;;5027118;28;20257;-67
2022/05/29 12:39:49;;;;;;;;;;;18.10;59.40;;;;;;5033531;28;19962;-67
2022/05/29 12:42:37;;;;;;;;;;;18.00;58.80;;;;;;5029393;28;20348;-67
2022/05/29 12:45:22;;;;;;;;;;;17.90;59.30;;;;;;5026895;28;19916;-67
2022/05/29 12:48:04;;;;;;;;;;;17.70;59.40;;;;;;5017400;28;19935;-68
2022/05/29 12:50:44;;;;;;;;;;;17.60;59.40;;;;;;5032731;28;19920;-69
2022/05/29 12:53:16;;;;;;;;;;;17.50;59.40;;;;;;5032071;28;20004;-69
2022/05/29 12:55:44;;;;;;;;;;;17.40;59.60;;;;;;5030280;28;20005;-70
2022/05/29 12:58:30;;;;;;;;;;;17.40;60.00;;;;;;5021542;28;19909;-68
2022/05/29 13:01:03;;;;;;;;;;;17.30;59.40;;;;;;5027378;28;20396;-69
2022/05/29 13:03:31;;;;;;;;;;;17.30;59.20;;;;;;5023781;28;19920;-69
2022/05/29 13:06:12;;;;;;;;;;;17.20;58.40;;;;;;5018167;28;19917;-68
2022/05/29 13:08:41;;;;;;;;;;;17.20;59.00;;;;;;5015355;28;20326;-67
2022/05/29 13:11:08;;;;;;;;;;;17.30;58.90;;;;;;5020449;28;19910;-68
2022/05/29 13:13:35;;;;;;;;;;;17.40;58.80;;;;;;5019355;28;20299;-68
2022/05/29 13:16:19;;;;;;;;;;;17.50;58.60;;;;;;5016655;28;19909;-68
2022/05/29 13:21:28;;;;;;;;;;;17.50;58.50;;;;;;5018967;28;19910;-68
2022/05/29 13:23:55;;;;;;;;;;;17.50;58.20;;;;;;5024176;28;19971;-69
2022/05/29 13:26:20;;;;;;;;;;;17.40;58.40;;;;;;5045499;28;19913;-69
2022/05/29 13:28:49;;;;;;;;;;;17.40;58.30;;;;;;5028958;28;19991;-69
2022/05/29 13:31:16;;;;;;;;;;;17.30;58.00;;;;;;5049808;28;19978;-69
2022/05/29 13:33:47;;;;;;;;;;;17.30;58.20;;;;;;5047094;28;19913;-70
2022/05/29 13:36:32;;;;;;;;;;;17.40;58.20;;;;;;5043997;28;19917;-70
2022/05/29 13:38:57;;;;;;;;;;;17.40;58.20;;;;;;5032461;28;19913;-69
2022/05/29 13:41:27;;;;;;;;;;;17.40;58.20;;;;;;5029282;28;20008;-69
2022/05/29 13:43:53;;;;;;;;;;;17.50;57.90;;;;;;5018388;28;20199;-69
2022/05/29 13:46:23;;;;;;;;;;;17.60;57.90;;;;;;5035506;28;19934;-69
2022/05/29 13:48:57;;;;;;;;;;;17.60;57.40;;;;;;5033402;28;19909;-69
2022/05/29 13:51:23;;;;;;;;;;;17.70;57.50;;;;;;5039078;28;19966;-69
2022/05/29 13:53:57;;;;;;;;;;;17.70;57.30;;;;;;5040800;28;19913;-69
2022/05/29 13:56:43;;;;;;;;;;;17.80;57.10;;;;;;5032497;28;20250;-69
2022/05/29 14:04:44;;;;;;;;;;;17.60;57.20;;;;;;5021983;28;20273;-69
2022/05/29 14:07:25;;;;;;;;;;;17.50;57.30;;;;;;5027108;28;19917;-70
2022/05/29 14:10:00;;;;;;;;;;;17.50;57.60;;;;;;5022868;28;20914;-66
2022/05/29 14:12:45;;;;;;;;;;;17.40;57.70;;;;;;5022921;28;20050;-66